sensor_id;sensor_type;location;lat;lon;timestamp;temperature;humidity
67976;DHT22;54757;50.890;20.670;2022-07-29T00:00:06;23;74
67976;DHT22;54757;50.890;20.670;2022-07-29T00:07:16;26;82
67976;DHT22;54757;50.890;20.670;2022-07-29T00:14:13;26;82
67976;DHT22;54757;50.890;20.670;2022-07-29T00:21:04;26;82
67976;DHT22;54757;50.890;20.670;2022-07-29T00:28:04;26;82
67976;DHT22;54757;50.890;20.670;2022-07-29T00:35:03;25;84
67976;DHT22;54757;50.890;20.670;2022-07-29T00:42:20;25;84
67976;DHT22;54757;50.890;20.670;2022-07-29T00:49:18;25;84
67976;DHT22;54757;50.890;20.670;2022-07-29T00:56:16;25;84
67976;DHT22;54757;50.890;20.670;2022-07-29T01:00:24;25;84
67976;DHT22;54757;50.890;20.670;2022-07-29T01:07:19;25;86
67976;DHT22;54757;50.890;20.670;2022-07-29T01:14:09;25;86
67976;DHT22;54757;50.890;20.670;2022-07-29T01:28:18;25;86
67976;DHT22;54757;50.890;20.670;2022-07-29T01:35:39;24;85
67976;DHT22;54757;50.890;20.670;2022-07-29T01:42:43;24;85
67976;DHT22;54757;50.890;20.670;2022-07-29T01:56:25;24;85
67976;DHT22;54757;50.890;20.670;2022-07-29T02:00:26;24;85
67976;DHT22;54757;50.890;20.670;2022-07-29T02:07:42;23;89
67976;DHT22;54757;50.890;20.670;2022-07-29T02:14:36;23;89
67976;DHT22;54757;50.890;20.670;2022-07-29T02:21:24;23;89
67976;DHT22;54757;50.890;20.670;2022-07-29T02:28:08;23;89
67976;DHT22;54757;50.890;20.670;2022-07-29T02:35:29;25;86
67976;DHT22;54757;50.890;20.670;2022-07-29T02:42:15;25;86
67976;DHT22;54757;50.890;20.670;2022-07-29T02:49:37;25;86
67976;DHT22;54757;50.890;20.670;2022-07-29T02:56:44;25;86
67976;DHT22;54757;50.890;20.670;2022-07-29T03:00:36;25;86
67976;DHT22;54757;50.890;20.670;2022-07-29T03:07:32;24;88
67976;DHT22;54757;50.890;20.670;2022-07-29T03:14:16;24;88
67976;DHT22;54757;50.890;20.670;2022-07-29T03:21:21;24;88
67976;DHT22;54757;50.890;20.670;2022-07-29T03:28:20;24;88
67976;DHT22;54757;50.890;20.670;2022-07-29T03:35:07;24;86
67976;DHT22;54757;50.890;20.670;2022-07-29T03:42:22;24;86
67976;DHT22;54757;50.890;20.670;2022-07-29T03:49:20;24;86
67976;DHT22;54757;50.890;20.670;2022-07-29T03:56:23;24;86
67976;DHT22;54757;50.890;20.670;2022-07-29T04:00:28;24;86
67976;DHT22;54757;50.890;20.670;2022-07-29T04:07:27;24;86
67976;DHT22;54757;50.890;20.670;2022-07-29T04:14:15;24;86
67976;DHT22;54757;50.890;20.670;2022-07-29T04:21:05;24;86
67976;DHT22;54757;50.890;20.670;2022-07-29T04:28:14;24;86
67976;DHT22;54757;50.890;20.670;2022-07-29T04:35:04;24;85
67976;DHT22;54757;50.890;20.670;2022-07-29T04:42:18;24;85
67976;DHT22;54757;50.890;20.670;2022-07-29T04:49:04;24;85
67976;DHT22;54757;50.890;20.670;2022-07-29T04:56:02;24;85
67976;DHT22;54757;50.890;20.670;2022-07-29T05:00:24;24;85
67976;DHT22;54757;50.890;20.670;2022-07-29T05:07:15;24;86
67976;DHT22;54757;50.890;20.670;2022-07-29T05:14:18;24;86
67976;DHT22;54757;50.890;20.670;2022-07-29T05:21:03;24;86
67976;DHT22;54757;50.890;20.670;2022-07-29T05:28:15;24;86
67976;DHT22;54757;50.890;20.670;2022-07-29T05:35:03;24;87
67976;DHT22;54757;50.890;20.670;2022-07-29T05:42:21;24;87
67976;DHT22;54757;50.890;20.670;2022-07-29T05:49:22;24;87
67976;DHT22;54757;50.890;20.670;2022-07-29T05:56:14;24;87
67976;DHT22;54757;50.890;20.670;2022-07-29T06:00:01;24;87
67976;DHT22;54757;50.890;20.670;2022-07-29T06:14:04;24;87
67976;DHT22;54757;50.890;20.670;2022-07-29T06:21:12;24;87
67976;DHT22;54757;50.890;20.670;2022-07-29T06:28:04;24;87
67976;DHT22;54757;50.890;20.670;2022-07-29T06:42:03;23;88
67976;DHT22;54757;50.890;20.670;2022-07-29T06:49:28;23;88
67976;DHT22;54757;50.890;20.670;2022-07-29T06:56:15;23;88
67976;DHT22;54757;50.890;20.670;2022-07-29T07:00:22;23;88
67976;DHT22;54757;50.890;20.670;2022-07-29T07:14:14;23;89
67976;DHT22;54757;50.890;20.670;2022-07-29T07:21:02;23;89
67976;DHT22;54757;50.890;20.670;2022-07-29T07:28:18;23;89
67976;DHT22;54757;50.890;20.670;2022-07-29T07:42:18;23;89
67976;DHT22;54757;50.890;20.670;2022-07-29T07:49:20;23;89
67976;DHT22;54757;50.890;20.670;2022-07-29T07:56:21;23;89
67976;DHT22;54757;50.890;20.670;2022-07-29T08:00:17;23;89
67976;DHT22;54757;50.890;20.670;2022-07-29T08:14:03;23;89
67976;DHT22;54757;50.890;20.670;2022-07-29T08:21:02;23;89
67976;DHT22;54757;50.890;20.670;2022-07-29T08:28:05;23;89
67976;DHT22;54757;50.890;20.670;2022-07-29T08:35:16;23;89
67976;DHT22;54757;50.890;20.670;2022-07-29T08:42:03;23;89
67976;DHT22;54757;50.890;20.670;2022-07-29T08:49:20;23;89
67976;DHT22;54757;50.890;20.670;2022-07-29T08:56:24;23;89
67976;DHT22;54757;50.890;20.670;2022-07-29T09:00:14;23;89
67976;DHT22;54757;50.890;20.670;2022-07-29T09:14:12;23;90
67976;DHT22;54757;50.890;20.670;2022-07-29T09:28:12;23;90
67976;DHT22;54757;50.890;20.670;2022-07-29T09:35:20;23;90
67976;DHT22;54757;50.890;20.670;2022-07-29T09:42:35;23;91
67976;DHT22;54757;50.890;20.670;2022-07-29T09:49:20;23;91
67976;DHT22;54757;50.890;20.670;2022-07-29T09:56:05;23;91
67976;DHT22;54757;50.890;20.670;2022-07-29T10:00:14;23;91
67976;DHT22;54757;50.890;20.670;2022-07-29T10:14:14;23;90
67976;DHT22;54757;50.890;20.670;2022-07-29T10:21:17;23;90
67976;DHT22;54757;50.890;20.670;2022-07-29T10:28:19;23;90
67976;DHT22;54757;50.890;20.670;2022-07-29T10:42:30;23;90
67976;DHT22;54757;50.890;20.670;2022-07-29T10:49:26;23;90
67976;DHT22;54757;50.890;20.670;2022-07-29T10:56:33;23;90
67976;DHT22;54757;50.890;20.670;2022-07-29T11:00:32;23;90
67976;DHT22;54757;50.890;20.670;2022-07-29T11:07:24;23;90
67976;DHT22;54757;50.890;20.670;2022-07-29T11:14:03;22;90
67976;DHT22;54757;50.890;20.670;2022-07-29T11:21:50;22;90
67976;DHT22;54757;50.890;20.670;2022-07-29T11:28:17;22;90
67976;DHT22;54757;50.890;20.670;2022-07-29T11:35:34;22;90
67976;DHT22;54757;50.890;20.670;2022-07-29T11:42:53;22;91
67976;DHT22;54757;50.890;20.670;2022-07-29T11:49:28;22;91
67976;DHT22;54757;50.890;20.670;2022-07-29T11:56:03;22;91
67976;DHT22;54757;50.890;20.670;2022-07-29T12:00:34;22;91
67976;DHT22;54757;50.890;20.670;2022-07-29T12:07:18;22;91
67976;DHT22;54757;50.890;20.670;2022-07-29T12:14:03;23;91
67976;DHT22;54757;50.890;20.670;2022-07-29T12:21:17;23;91
67976;DHT22;54757;50.890;20.670;2022-07-29T12:28:16;23;91
67976;DHT22;54757;50.890;20.670;2022-07-29T12:35:15;23;91
67976;DHT22;54757;50.890;20.670;2022-07-29T12:42:16;23;91
67976;DHT22;54757;50.890;20.670;2022-07-29T12:49:07;23;91
67976;DHT22;54757;50.890;20.670;2022-07-29T12:56:29;23;91
67976;DHT22;54757;50.890;20.670;2022-07-29T13:00:27;23;91
67976;DHT22;54757;50.890;20.670;2022-07-29T13:07:33;23;91
67976;DHT22;54757;50.890;20.670;2022-07-29T13:14:39;24;88
67976;DHT22;54757;50.890;20.670;2022-07-29T13:21:10;24;88
67976;DHT22;54757;50.890;20.670;2022-07-29T13:28:02;24;88
67976;DHT22;54757;50.890;20.670;2022-07-29T13:35:09;24;88
67976;DHT22;54757;50.890;20.670;2022-07-29T13:49:20;24;83
67976;DHT22;54757;50.890;20.670;2022-07-29T13:56:07;24;83
67976;DHT22;54757;50.890;20.670;2022-07-29T14:00:21;24;83
67976;DHT22;54757;50.890;20.670;2022-07-29T14:07:04;24;83
67976;DHT22;54757;50.890;20.670;2022-07-29T14:21:14;25;70
67976;DHT22;54757;50.890;20.670;2022-07-29T14:28:17;25;70
67976;DHT22;54757;50.890;20.670;2022-07-29T14:35:19;25;70
67976;DHT22;54757;50.890;20.670;2022-07-29T14:49:20;25;68
67976;DHT22;54757;50.890;20.670;2022-07-29T14:56:18;25;68
67976;DHT22;54757;50.890;20.670;2022-07-29T15:00:15;25;68
67976;DHT22;54757;50.890;20.670;2022-07-29T15:07:05;25;68
67976;DHT22;54757;50.890;20.670;2022-07-29T15:21:17;26;61
67976;DHT22;54757;50.890;20.670;2022-07-29T15:28:02;26;61
67976;DHT22;54757;50.890;20.670;2022-07-29T15:35:17;26;61
67976;DHT22;54757;50.890;20.670;2022-07-29T15:49:20;23;73
67976;DHT22;54757;50.890;20.670;2022-07-29T15:56:06;23;73
67976;DHT22;54757;50.890;20.670;2022-07-29T16:00:06;23;73
67976;DHT22;54757;50.890;20.670;2022-07-29T16:07:08;23;73
67976;DHT22;54757;50.890;20.670;2022-07-29T16:21:16;23;71
67976;DHT22;54757;50.890;20.670;2022-07-29T16:28:04;23;71
67976;DHT22;54757;50.890;20.670;2022-07-29T16:35:10;23;71
67976;DHT22;54757;50.890;20.670;2022-07-29T16:49:05;23;71
67976;DHT22;54757;50.890;20.670;2022-07-29T16:56:05;23;71
67976;DHT22;54757;50.890;20.670;2022-07-29T17:00:23;23;71
67976;DHT22;54757;50.890;20.670;2022-07-29T17:07:04;23;71
67976;DHT22;54757;50.890;20.670;2022-07-29T17:21:03;23;70
67976;DHT22;54757;50.890;20.670;2022-07-29T17:28:14;23;70
67976;DHT22;54757;50.890;20.670;2022-07-29T17:49:18;23;70
67976;DHT22;54757;50.890;20.670;2022-07-29T17:56:21;23;70
67976;DHT22;54757;50.890;20.670;2022-07-29T18:00:18;23;70
67976;DHT22;54757;50.890;20.670;2022-07-29T18:07:04;23;70
67976;DHT22;54757;50.890;20.670;2022-07-29T18:21:06;23;69
67976;DHT22;54757;50.890;20.670;2022-07-29T18:28:21;23;69
67976;DHT22;54757;50.890;20.670;2022-07-29T18:35:07;23;69
67976;DHT22;54757;50.890;20.670;2022-07-29T18:49:23;23;66
67976;DHT22;54757;50.890;20.670;2022-07-29T18:56:04;23;66
67976;DHT22;54757;50.890;20.670;2022-07-29T19:00:06;23;66
67976;DHT22;54757;50.890;20.670;2022-07-29T19:07:16;23;66
67976;DHT22;54757;50.890;20.670;2022-07-29T19:21:14;25;85
67976;DHT22;54757;50.890;20.670;2022-07-29T19:28:04;25;85
67976;DHT22;54757;50.890;20.670;2022-07-29T19:35:37;25;85
67976;DHT22;54757;50.890;20.670;2022-07-29T19:42:07;25;85
67976;DHT22;54757;50.890;20.670;2022-07-29T19:49:05;25;85
67976;DHT22;54757;50.890;20.670;2022-07-29T19:56:19;25;85
67976;DHT22;54757;50.890;20.670;2022-07-29T20:00:04;25;85
67976;DHT22;54757;50.890;20.670;2022-07-29T20:07:15;25;85
67976;DHT22;54757;50.890;20.670;2022-07-29T20:21:17;25;84
67976;DHT22;54757;50.890;20.670;2022-07-29T20:28:15;25;84
67976;DHT22;54757;50.890;20.670;2022-07-29T20:35:09;25;84
67976;DHT22;54757;50.890;20.670;2022-07-29T20:42:06;25;84
67976;DHT22;54757;50.890;20.670;2022-07-29T20:49:04;25;84
67976;DHT22;54757;50.890;20.670;2022-07-29T20:56:17;25;84
67976;DHT22;54757;50.890;20.670;2022-07-29T21:00:07;25;84
67976;DHT22;54757;50.890;20.670;2022-07-29T21:07:05;25;84
67976;DHT22;54757;50.890;20.670;2022-07-29T21:14:47;25;84
67976;DHT22;54757;50.890;20.670;2022-07-29T21:21:20;25;85
67976;DHT22;54757;50.890;20.670;2022-07-29T21:28:01;25;85
67976;DHT22;54757;50.890;20.670;2022-07-29T21:35:03;25;85
67976;DHT22;54757;50.890;20.670;2022-07-29T21:42:02;25;85
67976;DHT22;54757;50.890;20.670;2022-07-29T21:49:02;25;85
67976;DHT22;54757;50.890;20.670;2022-07-29T21:56:17;25;85
67976;DHT22;54757;50.890;20.670;2022-07-29T22:00:17;25;85
67976;DHT22;54757;50.890;20.670;2022-07-29T22:07:15;25;85
67976;DHT22;54757;50.890;20.670;2022-07-29T22:14:11;25;85
67976;DHT22;54757;50.890;20.670;2022-07-29T22:21:19;25;85
67976;DHT22;54757;50.890;20.670;2022-07-29T22:28:04;25;85
67976;DHT22;54757;50.890;20.670;2022-07-29T22:35:03;26;85
67976;DHT22;54757;50.890;20.670;2022-07-29T22:42:15;26;85
67976;DHT22;54757;50.890;20.670;2022-07-29T22:49:04;26;85
67976;DHT22;54757;50.890;20.670;2022-07-29T22:56:03;26;85
67976;DHT22;54757;50.890;20.670;2022-07-29T23:07:18;23;69
67976;DHT22;54757;50.890;20.670;2022-07-29T23:14:03;23;69
67976;DHT22;54757;50.890;20.670;2022-07-29T23:21:03;23;69
67976;DHT22;54757;50.890;20.670;2022-07-29T23:28:20;23;69
67976;DHT22;54757;50.890;20.670;2022-07-29T23:35:23;23;69
67976;DHT22;54757;50.890;20.670;2022-07-29T23:42:04;23;69
67976;DHT22;54757;50.890;20.670;2022-07-29T23:49:18;23;69
67976;DHT22;54757;50.890;20.670;2022-07-29T23:56:07;23;69
